sensor_id;sensor_type;location;lat;lon;timestamp;P1;durP1;ratioP1;P2;durP2;ratioP2
5022;SDS011;2530;47.990;7.866;2023-03-14T00:00:52;0.50;;;0.40;;
5022;SDS011;2530;47.990;7.866;2023-03-14T00:03:18;0.60;;;0.60;;
5022;SDS011;2530;47.990;7.866;2023-03-14T00:05:43;1.50;;;0.43;;
5022;SDS011;2530;47.990;7.866;2023-03-14T00:08:09;0.70;;;0.50;;
5022;SDS011;2530;47.990;7.866;2023-03-14T00:10:35;1.70;;;0.40;;
5022;SDS011;2530;47.990;7.866;2023-03-14T00:13:01;0.70;;;0.47;;
5022;SDS011;2530;47.990;7.866;2023-03-14T00:15:27;0.50;;;0.40;;
5022;SDS011;2530;47.990;7.866;2023-03-14T00:17:52;0.50;;;0.30;;
5022;SDS011;2530;47.990;7.866;2023-03-14T00:20:18;0.97;;;0.40;;
5022;SDS011;2530;47.990;7.866;2023-03-14T00:22:43;0.60;;;0.40;;
5022;SDS011;2530;47.990;7.866;2023-03-14T00:25:09;0.40;;;0.40;;
5022;SDS011;2530;47.990;7.866;2023-03-14T00:27:36;0.40;;;0.30;;
5022;SDS011;2530;47.990;7.866;2023-03-14T00:30:02;0.57;;;0.35;;
5022;SDS011;2530;47.990;7.866;2023-03-14T00:32:28;0.60;;;0.32;;
5022;SDS011;2530;47.990;7.866;2023-03-14T00:34:53;0.70;;;0.40;;
5022;SDS011;2530;47.990;7.866;2023-03-14T00:37:19;0.60;;;0.40;;
5022;SDS011;2530;47.990;7.866;2023-03-14T00:39:45;0.60;;;0.40;;
5022;SDS011;2530;47.990;7.866;2023-03-14T00:42:10;0.90;;;0.40;;
5022;SDS011;2530;47.990;7.866;2023-03-14T00:44:36;1.70;;;0.40;;
5022;SDS011;2530;47.990;7.866;2023-03-14T00:47:01;0.50;;;0.40;;
5022;SDS011;2530;47.990;7.866;2023-03-14T00:49:27;0.70;;;0.40;;
5022;SDS011;2530;47.990;7.866;2023-03-14T00:51:52;0.70;;;0.40;;
5022;SDS011;2530;47.990;7.866;2023-03-14T00:54:18;0.60;;;0.50;;
5022;SDS011;2530;47.990;7.866;2023-03-14T00:56:44;0.52;;;0.40;;
5022;SDS011;2530;47.990;7.866;2023-03-14T00:59:10;1.83;;;0.40;;
5022;SDS011;2530;47.990;7.866;2023-03-14T01:01:35;1.50;;;0.40;;
5022;SDS011;2530;47.990;7.866;2023-03-14T01:04:01;1.50;;;0.60;;
5022;SDS011;2530;47.990;7.866;2023-03-14T01:06:28;0.70;;;0.40;;
5022;SDS011;2530;47.990;7.866;2023-03-14T01:08:54;0.90;;;0.30;;
5022;SDS011;2530;47.990;7.866;2023-03-14T01:11:22;0.70;;;0.50;;
5022;SDS011;2530;47.990;7.866;2023-03-14T01:13:50;1.50;;;0.50;;
5022;SDS011;2530;47.990;7.866;2023-03-14T01:16:16;0.90;;;0.52;;
5022;SDS011;2530;47.990;7.866;2023-03-14T01:18:43;1.70;;;0.80;;
5022;SDS011;2530;47.990;7.866;2023-03-14T01:21:14;1.30;;;0.50;;
5022;SDS011;2530;47.990;7.866;2023-03-14T01:23:51;1.80;;;0.40;;
5022;SDS011;2530;47.990;7.866;2023-03-14T01:26:20;1.30;;;0.50;;
5022;SDS011;2530;47.990;7.866;2023-03-14T01:28:47;1.00;;;0.50;;
5022;SDS011;2530;47.990;7.866;2023-03-14T01:31:14;1.70;;;0.40;;
5022;SDS011;2530;47.990;7.866;2023-03-14T01:33:40;0.70;;;0.55;;
5022;SDS011;2530;47.990;7.866;2023-03-14T01:36:07;1.40;;;0.70;;
5022;SDS011;2530;47.990;7.866;2023-03-14T01:38:33;3.20;;;0.73;;
5022;SDS011;2530;47.990;7.866;2023-03-14T01:41:00;1.00;;;0.60;;
5022;SDS011;2530;47.990;7.866;2023-03-14T01:43:26;1.90;;;0.60;;
5022;SDS011;2530;47.990;7.866;2023-03-14T01:56:49;1.80;;;0.60;;
5022;SDS011;2530;47.990;7.866;2023-03-14T01:59:19;1.40;;;0.90;;
5022;SDS011;2530;47.990;7.866;2023-03-14T02:01:45;1.40;;;0.52;;
5022;SDS011;2530;47.990;7.866;2023-03-14T02:04:12;2.60;;;0.63;;
5022;SDS011;2530;47.990;7.866;2023-03-14T02:07:00;2.22;;;0.60;;
5022;SDS011;2530;47.990;7.866;2023-03-14T02:09:38;2.80;;;0.85;;
5022;SDS011;2530;47.990;7.866;2023-03-14T02:12:05;1.27;;;0.50;;
5022;SDS011;2530;47.990;7.866;2023-03-14T02:14:33;2.88;;;0.80;;
5022;SDS011;2530;47.990;7.866;2023-03-14T02:17:00;1.48;;;0.60;;
5022;SDS011;2530;47.990;7.866;2023-03-14T02:19:36;1.00;;;0.40;;
5022;SDS011;2530;47.990;7.866;2023-03-14T02:22:13;1.50;;;0.60;;
5022;SDS011;2530;47.990;7.866;2023-03-14T02:27:25;2.00;;;0.80;;
5022;SDS011;2530;47.990;7.866;2023-03-14T02:29:55;1.50;;;0.40;;
5022;SDS011;2530;47.990;7.866;2023-03-14T02:32:24;1.17;;;0.60;;
5022;SDS011;2530;47.990;7.866;2023-03-14T02:34:53;4.20;;;0.60;;
5022;SDS011;2530;47.990;7.866;2023-03-14T02:37:22;1.98;;;0.40;;
5022;SDS011;2530;47.990;7.866;2023-03-14T02:39:51;1.73;;;0.50;;
5022;SDS011;2530;47.990;7.866;2023-03-14T02:42:17;1.85;;;0.68;;
5022;SDS011;2530;47.990;7.866;2023-03-14T02:47:30;1.48;;;0.70;;
5022;SDS011;2530;47.990;7.866;2023-03-14T02:50:00;1.90;;;0.60;;
5022;SDS011;2530;47.990;7.866;2023-03-14T02:52:29;1.83;;;0.60;;
5022;SDS011;2530;47.990;7.866;2023-03-14T02:54:54;1.10;;;0.50;;
5022;SDS011;2530;47.990;7.866;2023-03-14T02:57:20;2.60;;;0.70;;
5022;SDS011;2530;47.990;7.866;2023-03-14T02:59:45;2.50;;;1.00;;
5022;SDS011;2530;47.990;7.866;2023-03-14T03:02:11;2.03;;;0.57;;
5022;SDS011;2530;47.990;7.866;2023-03-14T03:04:36;2.50;;;0.80;;
5022;SDS011;2530;47.990;7.866;2023-03-14T03:07:02;3.38;;;0.60;;
5022;SDS011;2530;47.990;7.866;2023-03-14T03:09:27;2.60;;;0.70;;
5022;SDS011;2530;47.990;7.866;2023-03-14T03:11:53;2.10;;;1.30;;
5022;SDS011;2530;47.990;7.866;2023-03-14T03:14:18;2.95;;;0.60;;
5022;SDS011;2530;47.990;7.866;2023-03-14T03:16:44;1.23;;;0.50;;
5022;SDS011;2530;47.990;7.866;2023-03-14T03:19:09;2.90;;;0.80;;
5022;SDS011;2530;47.990;7.866;2023-03-14T03:21:35;3.93;;;0.83;;
5022;SDS011;2530;47.990;7.866;2023-03-14T03:24:00;2.40;;;0.80;;
5022;SDS011;2530;47.990;7.866;2023-03-14T03:26:26;2.55;;;0.80;;
5022;SDS011;2530;47.990;7.866;2023-03-14T03:28:51;3.20;;;0.80;;
5022;SDS011;2530;47.990;7.866;2023-03-14T03:31:17;3.60;;;1.20;;
5022;SDS011;2530;47.990;7.866;2023-03-14T03:33:43;1.87;;;0.50;;
5022;SDS011;2530;47.990;7.866;2023-03-14T03:36:08;2.20;;;0.90;;
5022;SDS011;2530;47.990;7.866;2023-03-14T03:38:35;1.70;;;0.87;;
5022;SDS011;2530;47.990;7.866;2023-03-14T03:41:04;1.65;;;0.75;;
5022;SDS011;2530;47.990;7.866;2023-03-14T03:43:31;2.70;;;0.60;;
5022;SDS011;2530;47.990;7.866;2023-03-14T03:45:56;2.40;;;0.60;;
5022;SDS011;2530;47.990;7.866;2023-03-14T03:48:22;2.10;;;0.52;;
5022;SDS011;2530;47.990;7.866;2023-03-14T03:50:47;1.50;;;0.77;;
5022;SDS011;2530;47.990;7.866;2023-03-14T03:53:13;2.27;;;0.80;;
5022;SDS011;2530;47.990;7.866;2023-03-14T03:55:42;2.10;;;0.60;;
5022;SDS011;2530;47.990;7.866;2023-03-14T03:58:07;1.70;;;0.60;;
5022;SDS011;2530;47.990;7.866;2023-03-14T04:00:33;1.83;;;0.60;;
5022;SDS011;2530;47.990;7.866;2023-03-14T04:02:58;1.85;;;0.60;;
5022;SDS011;2530;47.990;7.866;2023-03-14T04:05:25;3.45;;;0.50;;
5022;SDS011;2530;47.990;7.866;2023-03-14T04:07:51;1.10;;;0.50;;
5022;SDS011;2530;47.990;7.866;2023-03-14T04:10:16;0.90;;;0.40;;
5022;SDS011;2530;47.990;7.866;2023-03-14T04:12:42;2.67;;;0.50;;
5022;SDS011;2530;47.990;7.866;2023-03-14T04:15:07;1.13;;;0.53;;
5022;SDS011;2530;47.990;7.866;2023-03-14T04:17:33;1.30;;;0.40;;
5022;SDS011;2530;47.990;7.866;2023-03-14T04:19:59;3.37;;;0.67;;
5022;SDS011;2530;47.990;7.866;2023-03-14T04:22:24;0.85;;;0.50;;
5022;SDS011;2530;47.990;7.866;2023-03-14T04:24:50;1.47;;;0.60;;
5022;SDS011;2530;47.990;7.866;2023-03-14T04:27:15;2.40;;;0.50;;
5022;SDS011;2530;47.990;7.866;2023-03-14T04:29:41;2.10;;;0.40;;
5022;SDS011;2530;47.990;7.866;2023-03-14T04:32:07;1.98;;;0.68;;
5022;SDS011;2530;47.990;7.866;2023-03-14T04:34:33;0.80;;;0.50;;
5022;SDS011;2530;47.990;7.866;2023-03-14T04:36:58;1.80;;;0.50;;
5022;SDS011;2530;47.990;7.866;2023-03-14T04:39:24;1.90;;;0.40;;
5022;SDS011;2530;47.990;7.866;2023-03-14T04:41:49;2.10;;;0.80;;
5022;SDS011;2530;47.990;7.866;2023-03-14T04:44:15;0.60;;;0.38;;
5022;SDS011;2530;47.990;7.866;2023-03-14T04:46:40;1.00;;;0.50;;
5022;SDS011;2530;47.990;7.866;2023-03-14T04:49:06;0.60;;;0.30;;
5022;SDS011;2530;47.990;7.866;2023-03-14T04:51:31;1.90;;;0.50;;
5022;SDS011;2530;47.990;7.866;2023-03-14T04:53:57;1.10;;;0.40;;
5022;SDS011;2530;47.990;7.866;2023-03-14T04:56:23;1.02;;;0.40;;
5022;SDS011;2530;47.990;7.866;2023-03-14T04:58:48;1.42;;;0.70;;
5022;SDS011;2530;47.990;7.866;2023-03-14T05:01:14;0.70;;;0.30;;
5022;SDS011;2530;47.990;7.866;2023-03-14T05:03:40;1.48;;;0.50;;
5022;SDS011;2530;47.990;7.866;2023-03-14T05:06:05;0.50;;;0.30;;
5022;SDS011;2530;47.990;7.866;2023-03-14T05:08:31;0.80;;;0.40;;
5022;SDS011;2530;47.990;7.866;2023-03-14T05:10:57;0.80;;;0.40;;
5022;SDS011;2530;47.990;7.866;2023-03-14T05:13:23;1.50;;;0.40;;
5022;SDS011;2530;47.990;7.866;2023-03-14T05:15:49;0.93;;;0.60;;
5022;SDS011;2530;47.990;7.866;2023-03-14T05:18:15;1.10;;;0.40;;
5022;SDS011;2530;47.990;7.866;2023-03-14T05:20:41;0.80;;;0.40;;
5022;SDS011;2530;47.990;7.866;2023-03-14T05:23:08;1.50;;;0.50;;
5022;SDS011;2530;47.990;7.866;2023-03-14T05:25:34;0.80;;;0.30;;
5022;SDS011;2530;47.990;7.866;2023-03-14T05:28:00;1.00;;;0.30;;
5022;SDS011;2530;47.990;7.866;2023-03-14T05:30:25;0.68;;;0.30;;
5022;SDS011;2530;47.990;7.866;2023-03-14T05:32:52;0.82;;;0.40;;
5022;SDS011;2530;47.990;7.866;2023-03-14T05:35:18;0.83;;;0.40;;
5022;SDS011;2530;47.990;7.866;2023-03-14T05:37:44;0.70;;;0.30;;
5022;SDS011;2530;47.990;7.866;2023-03-14T05:40:10;1.00;;;0.40;;
5022;SDS011;2530;47.990;7.866;2023-03-14T05:42:36;0.90;;;0.40;;
5022;SDS011;2530;47.990;7.866;2023-03-14T05:45:02;0.90;;;0.43;;
5022;SDS011;2530;47.990;7.866;2023-03-14T05:47:27;0.90;;;0.70;;
5022;SDS011;2530;47.990;7.866;2023-03-14T05:49:53;0.60;;;0.40;;
5022;SDS011;2530;47.990;7.866;2023-03-14T05:52:18;1.40;;;0.40;;
5022;SDS011;2530;47.990;7.866;2023-03-14T05:54:44;1.30;;;0.40;;
5022;SDS011;2530;47.990;7.866;2023-03-14T05:57:10;0.52;;;0.30;;
5022;SDS011;2530;47.990;7.866;2023-03-14T05:59:35;0.53;;;0.37;;
5022;SDS011;2530;47.990;7.866;2023-03-14T06:02:01;0.97;;;0.43;;
5022;SDS011;2530;47.990;7.866;2023-03-14T06:04:26;0.43;;;0.30;;
5022;SDS011;2530;47.990;7.866;2023-03-14T06:06:52;1.17;;;0.30;;
5022;SDS011;2530;47.990;7.866;2023-03-14T06:09:17;1.17;;;0.40;;
5022;SDS011;2530;47.990;7.866;2023-03-14T06:11:45;0.75;;;0.40;;
5022;SDS011;2530;47.990;7.866;2023-03-14T06:14:11;0.70;;;0.40;;
5022;SDS011;2530;47.990;7.866;2023-03-14T06:16:37;0.75;;;0.50;;
5022;SDS011;2530;47.990;7.866;2023-03-14T06:19:02;1.10;;;0.40;;
5022;SDS011;2530;47.990;7.866;2023-03-14T06:21:28;0.53;;;0.30;;
5022;SDS011;2530;47.990;7.866;2023-03-14T06:23:53;1.50;;;0.30;;
5022;SDS011;2530;47.990;7.866;2023-03-14T06:26:19;0.70;;;0.40;;
5022;SDS011;2530;47.990;7.866;2023-03-14T06:28:44;0.57;;;0.30;;
5022;SDS011;2530;47.990;7.866;2023-03-14T06:31:10;0.77;;;0.40;;
5022;SDS011;2530;47.990;7.866;2023-03-14T06:33:35;2.50;;;0.37;;
5022;SDS011;2530;47.990;7.866;2023-03-14T06:36:01;1.55;;;0.45;;
5022;SDS011;2530;47.990;7.866;2023-03-14T06:38:26;0.80;;;0.40;;
5022;SDS011;2530;47.990;7.866;2023-03-14T06:40:52;0.80;;;0.50;;
5022;SDS011;2530;47.990;7.866;2023-03-14T06:43:17;1.00;;;0.30;;
5022;SDS011;2530;47.990;7.866;2023-03-14T06:45:43;0.50;;;0.30;;
5022;SDS011;2530;47.990;7.866;2023-03-14T06:48:08;0.63;;;0.40;;
5022;SDS011;2530;47.990;7.866;2023-03-14T06:50:34;0.93;;;0.47;;
5022;SDS011;2530;47.990;7.866;2023-03-14T06:52:59;1.23;;;0.40;;
5022;SDS011;2530;47.990;7.866;2023-03-14T06:55:25;1.00;;;0.50;;
5022;SDS011;2530;47.990;7.866;2023-03-14T06:57:51;0.50;;;0.30;;
5022;SDS011;2530;47.990;7.866;2023-03-14T07:00:16;1.60;;;0.50;;
5022;SDS011;2530;47.990;7.866;2023-03-14T07:02:42;0.80;;;0.40;;
5022;SDS011;2530;47.990;7.866;2023-03-14T07:05:08;2.00;;;0.50;;
5022;SDS011;2530;47.990;7.866;2023-03-14T07:07:35;1.20;;;0.43;;
5022;SDS011;2530;47.990;7.866;2023-03-14T07:10:00;0.90;;;0.40;;
5022;SDS011;2530;47.990;7.866;2023-03-14T07:12:26;0.90;;;0.30;;
5022;SDS011;2530;47.990;7.866;2023-03-14T07:14:51;0.70;;;0.40;;
5022;SDS011;2530;47.990;7.866;2023-03-14T07:17:17;1.60;;;0.40;;
5022;SDS011;2530;47.990;7.866;2023-03-14T07:19:42;0.90;;;0.45;;
5022;SDS011;2530;47.990;7.866;2023-03-14T07:22:08;0.83;;;0.50;;
5022;SDS011;2530;47.990;7.866;2023-03-14T07:24:33;1.60;;;1.00;;
5022;SDS011;2530;47.990;7.866;2023-03-14T07:26:59;1.00;;;0.60;;
5022;SDS011;2530;47.990;7.866;2023-03-14T07:29:24;1.20;;;0.40;;
5022;SDS011;2530;47.990;7.866;2023-03-14T07:31:50;0.90;;;0.50;;
5022;SDS011;2530;47.990;7.866;2023-03-14T07:34:15;0.83;;;0.30;;
5022;SDS011;2530;47.990;7.866;2023-03-14T07:36:41;2.10;;;0.50;;
5022;SDS011;2530;47.990;7.866;2023-03-14T07:39:06;1.00;;;0.50;;
5022;SDS011;2530;47.990;7.866;2023-03-14T07:41:32;1.20;;;0.70;;
5022;SDS011;2530;47.990;7.866;2023-03-14T07:43:58;0.60;;;0.30;;
5022;SDS011;2530;47.990;7.866;2023-03-14T07:46:24;0.97;;;0.40;;
5022;SDS011;2530;47.990;7.866;2023-03-14T07:48:49;1.40;;;0.50;;
5022;SDS011;2530;47.990;7.866;2023-03-14T07:51:15;0.50;;;0.30;;
5022;SDS011;2530;47.990;7.866;2023-03-14T07:53:40;0.90;;;0.40;;
5022;SDS011;2530;47.990;7.866;2023-03-14T07:56:08;1.00;;;0.40;;
5022;SDS011;2530;47.990;7.866;2023-03-14T07:58:33;0.73;;;0.40;;
5022;SDS011;2530;47.990;7.866;2023-03-14T08:00:59;1.10;;;0.40;;
5022;SDS011;2530;47.990;7.866;2023-03-14T08:03:24;0.60;;;0.40;;
5022;SDS011;2530;47.990;7.866;2023-03-14T08:05:50;1.50;;;0.37;;
5022;SDS011;2530;47.990;7.866;2023-03-14T08:08:16;0.47;;;0.30;;
5022;SDS011;2530;47.990;7.866;2023-03-14T08:10:42;1.10;;;0.40;;
5022;SDS011;2530;47.990;7.866;2023-03-14T08:13:08;0.80;;;0.40;;
5022;SDS011;2530;47.990;7.866;2023-03-14T08:15:34;1.70;;;0.50;;
5022;SDS011;2530;47.990;7.866;2023-03-14T08:18:01;0.50;;;0.32;;
5022;SDS011;2530;47.990;7.866;2023-03-14T08:20:27;0.80;;;0.50;;
5022;SDS011;2530;47.990;7.866;2023-03-14T08:22:57;0.70;;;0.50;;
5022;SDS011;2530;47.990;7.866;2023-03-14T08:25:24;1.50;;;0.50;;
5022;SDS011;2530;47.990;7.866;2023-03-14T08:27:50;2.00;;;0.40;;
5022;SDS011;2530;47.990;7.866;2023-03-14T08:30:16;0.70;;;0.50;;
5022;SDS011;2530;47.990;7.866;2023-03-14T08:32:43;0.90;;;0.40;;
5022;SDS011;2530;47.990;7.866;2023-03-14T08:35:09;1.00;;;0.40;;
5022;SDS011;2530;47.990;7.866;2023-03-14T08:37:35;1.10;;;0.60;;
5022;SDS011;2530;47.990;7.866;2023-03-14T08:40:01;1.38;;;0.50;;
5022;SDS011;2530;47.990;7.866;2023-03-14T08:42:31;1.60;;;0.47;;
5022;SDS011;2530;47.990;7.866;2023-03-14T08:44:57;0.80;;;0.40;;
5022;SDS011;2530;47.990;7.866;2023-03-14T08:47:23;0.80;;;0.40;;
5022;SDS011;2530;47.990;7.866;2023-03-14T08:49:49;1.98;;;1.20;;
5022;SDS011;2530;47.990;7.866;2023-03-14T08:52:14;1.90;;;1.00;;
5022;SDS011;2530;47.990;7.866;2023-03-14T08:54:41;1.40;;;0.70;;
5022;SDS011;2530;47.990;7.866;2023-03-14T08:57:09;1.20;;;0.50;;
5022;SDS011;2530;47.990;7.866;2023-03-14T08:59:35;0.90;;;0.50;;
5022;SDS011;2530;47.990;7.866;2023-03-14T09:02:01;0.50;;;0.40;;
5022;SDS011;2530;47.990;7.866;2023-03-14T09:04:28;0.80;;;0.47;;
5022;SDS011;2530;47.990;7.866;2023-03-14T09:06:54;1.20;;;0.40;;
5022;SDS011;2530;47.990;7.866;2023-03-14T09:09:20;0.70;;;0.40;;
5022;SDS011;2530;47.990;7.866;2023-03-14T09:11:46;1.00;;;0.45;;
5022;SDS011;2530;47.990;7.866;2023-03-14T09:14:12;0.50;;;0.30;;
5022;SDS011;2530;47.990;7.866;2023-03-14T09:16:38;0.70;;;0.40;;
5022;SDS011;2530;47.990;7.866;2023-03-14T09:19:04;1.20;;;0.30;;
5022;SDS011;2530;47.990;7.866;2023-03-14T09:21:30;1.30;;;0.40;;
5022;SDS011;2530;47.990;7.866;2023-03-14T09:23:56;1.00;;;0.40;;
5022;SDS011;2530;47.990;7.866;2023-03-14T09:26:21;1.20;;;0.40;;
5022;SDS011;2530;47.990;7.866;2023-03-14T09:28:47;0.70;;;0.40;;
5022;SDS011;2530;47.990;7.866;2023-03-14T09:31:13;0.50;;;0.30;;
5022;SDS011;2530;47.990;7.866;2023-03-14T09:33:39;0.90;;;0.40;;
5022;SDS011;2530;47.990;7.866;2023-03-14T09:36:05;0.60;;;0.30;;
5022;SDS011;2530;47.990;7.866;2023-03-14T09:38:32;0.53;;;0.50;;
5022;SDS011;2530;47.990;7.866;2023-03-14T09:40:59;1.30;;;0.30;;
5022;SDS011;2530;47.990;7.866;2023-03-14T09:43:28;0.50;;;0.30;;
5022;SDS011;2530;47.990;7.866;2023-03-14T09:45:56;1.00;;;0.40;;
5022;SDS011;2530;47.990;7.866;2023-03-14T09:48:29;0.90;;;0.30;;
5022;SDS011;2530;47.990;7.866;2023-03-14T09:50:58;0.60;;;0.40;;
5022;SDS011;2530;47.990;7.866;2023-03-14T09:53:41;0.40;;;0.40;;
5022;SDS011;2530;47.990;7.866;2023-03-14T09:56:13;1.20;;;0.30;;
5022;SDS011;2530;47.990;7.866;2023-03-14T09:58:59;0.70;;;0.40;;
5022;SDS011;2530;47.990;7.866;2023-03-14T10:01:31;0.82;;;0.30;;
5022;SDS011;2530;47.990;7.866;2023-03-14T10:04:05;0.50;;;0.40;;
5022;SDS011;2530;47.990;7.866;2023-03-14T10:06:37;0.50;;;0.33;;
5022;SDS011;2530;47.990;7.866;2023-03-14T10:09:03;0.90;;;0.50;;
5022;SDS011;2530;47.990;7.866;2023-03-14T10:11:30;1.08;;;0.68;;
5022;SDS011;2530;47.990;7.866;2023-03-14T10:14:09;0.90;;;0.70;;
5022;SDS011;2530;47.990;7.866;2023-03-14T10:16:41;1.08;;;0.70;;
5022;SDS011;2530;47.990;7.866;2023-03-14T10:19:13;0.40;;;0.30;;
5022;SDS011;2530;47.990;7.866;2023-03-14T10:21:41;0.52;;;0.30;;
5022;SDS011;2530;47.990;7.866;2023-03-14T10:24:09;0.60;;;0.30;;
5022;SDS011;2530;47.990;7.866;2023-03-14T10:26:44;0.40;;;0.30;;
5022;SDS011;2530;47.990;7.866;2023-03-14T10:29:13;0.45;;;0.30;;
5022;SDS011;2530;47.990;7.866;2023-03-14T10:32:22;0.50;;;0.30;;
5022;SDS011;2530;47.990;7.866;2023-03-14T10:34:30;0.60;;;0.30;;
5022;SDS011;2530;47.990;7.866;2023-03-14T10:36:59;1.20;;;0.40;;
5022;SDS011;2530;47.990;7.866;2023-03-14T10:39:47;0.40;;;0.30;;
5022;SDS011;2530;47.990;7.866;2023-03-14T10:42:28;0.40;;;0.30;;
5022;SDS011;2530;47.990;7.866;2023-03-14T10:47:54;0.50;;;0.40;;
5022;SDS011;2530;47.990;7.866;2023-03-14T10:50:27;0.70;;;0.40;;
5022;SDS011;2530;47.990;7.866;2023-03-14T10:52:55;0.60;;;0.30;;
5022;SDS011;2530;47.990;7.866;2023-03-14T10:55:23;1.63;;;0.30;;
5022;SDS011;2530;47.990;7.866;2023-03-14T10:57:51;1.40;;;0.40;;
5022;SDS011;2530;47.990;7.866;2023-03-14T11:00:18;0.40;;;0.30;;
5022;SDS011;2530;47.990;7.866;2023-03-14T11:08:25;0.60;;;0.38;;
5022;SDS011;2530;47.990;7.866;2023-03-14T11:14:01;0.40;;;0.30;;
5022;SDS011;2530;47.990;7.866;2023-03-14T11:19:29;0.40;;;0.30;;
5022;SDS011;2530;47.990;7.866;2023-03-14T11:24:55;1.40;;;0.50;;
5022;SDS011;2530;47.990;7.866;2023-03-14T11:27:44;2.30;;;0.40;;
5022;SDS011;2530;47.990;7.866;2023-03-14T11:30:21;0.40;;;0.30;;
5022;SDS011;2530;47.990;7.866;2023-03-14T11:33:07;0.55;;;0.40;;
5022;SDS011;2530;47.990;7.866;2023-03-14T11:35:47;0.80;;;0.52;;
5022;SDS011;2530;47.990;7.866;2023-03-14T11:41:04;1.40;;;0.80;;
5022;SDS011;2530;47.990;7.866;2023-03-14T11:43:38;2.92;;;0.70;;
5022;SDS011;2530;47.990;7.866;2023-03-14T11:46:10;0.50;;;0.50;;
5022;SDS011;2530;47.990;7.866;2023-03-14T11:51:41;0.60;;;0.40;;
5022;SDS011;2530;47.990;7.866;2023-03-14T11:56:58;1.40;;;0.40;;
5022;SDS011;2530;47.990;7.866;2023-03-14T11:59:28;0.57;;;0.47;;
5022;SDS011;2530;47.990;7.866;2023-03-14T12:02:10;0.88;;;0.43;;
5022;SDS011;2530;47.990;7.866;2023-03-14T12:07:36;1.50;;;0.40;;
5022;SDS011;2530;47.990;7.866;2023-03-14T12:10:04;0.70;;;0.40;;
5022;SDS011;2530;47.990;7.866;2023-03-14T12:12:30;0.98;;;0.60;;
5022;SDS011;2530;47.990;7.866;2023-03-14T12:15:00;1.20;;;0.30;;
5022;SDS011;2530;47.990;7.866;2023-03-14T12:17:34;1.40;;;0.40;;
5022;SDS011;2530;47.990;7.866;2023-03-14T12:22:43;1.00;;;0.40;;
5022;SDS011;2530;47.990;7.866;2023-03-14T12:27:46;1.60;;;0.40;;
5022;SDS011;2530;47.990;7.866;2023-03-14T12:30:29;0.70;;;0.40;;
5022;SDS011;2530;47.990;7.866;2023-03-14T12:38:09;0.65;;;0.40;;
5022;SDS011;2530;47.990;7.866;2023-03-14T12:40:58;2.38;;;0.50;;
5022;SDS011;2530;47.990;7.866;2023-03-14T12:43:32;1.50;;;0.40;;
5022;SDS011;2530;47.990;7.866;2023-03-14T12:48:43;0.90;;;0.57;;
5022;SDS011;2530;47.990;7.866;2023-03-14T12:51:12;0.80;;;0.50;;
5022;SDS011;2530;47.990;7.866;2023-03-14T12:53:45;0.60;;;0.40;;
5022;SDS011;2530;47.990;7.866;2023-03-14T12:59:13;0.90;;;0.40;;
5022;SDS011;2530;47.990;7.866;2023-03-14T13:02:24;1.50;;;0.50;;
5022;SDS011;2530;47.990;7.866;2023-03-14T13:05:11;1.25;;;0.60;;
5022;SDS011;2530;47.990;7.866;2023-03-14T13:17:59;1.20;;;0.60;;
5022;SDS011;2530;47.990;7.866;2023-03-14T13:20:53;1.20;;;0.40;;
5022;SDS011;2530;47.990;7.866;2023-03-14T13:25:48;1.20;;;0.80;;
5022;SDS011;2530;47.990;7.866;2023-03-14T13:28:14;0.80;;;0.60;;
5022;SDS011;2530;47.990;7.866;2023-03-14T13:30:42;1.00;;;0.80;;
5022;SDS011;2530;47.990;7.866;2023-03-14T13:33:19;2.83;;;0.50;;
5022;SDS011;2530;47.990;7.866;2023-03-14T13:35:48;1.05;;;0.95;;
5022;SDS011;2530;47.990;7.866;2023-03-14T13:38:35;1.40;;;0.50;;
5022;SDS011;2530;47.990;7.866;2023-03-14T13:41:05;1.90;;;0.60;;
5022;SDS011;2530;47.990;7.866;2023-03-14T13:43:33;2.10;;;0.50;;
5022;SDS011;2530;47.990;7.866;2023-03-14T13:46:10;2.35;;;0.75;;
5022;SDS011;2530;47.990;7.866;2023-03-14T13:48:42;0.70;;;0.50;;
5022;SDS011;2530;47.990;7.866;2023-03-14T13:51:10;1.50;;;0.60;;
5022;SDS011;2530;47.990;7.866;2023-03-14T13:53:45;1.90;;;0.90;;
5022;SDS011;2530;47.990;7.866;2023-03-14T13:56:12;1.05;;;0.60;;
5022;SDS011;2530;47.990;7.866;2023-03-14T13:58:38;1.30;;;0.60;;
5022;SDS011;2530;47.990;7.866;2023-03-14T14:01:27;2.00;;;0.60;;
5022;SDS011;2530;47.990;7.866;2023-03-14T14:03:56;2.70;;;0.80;;
5022;SDS011;2530;47.990;7.866;2023-03-14T14:06:32;0.90;;;0.40;;
5022;SDS011;2530;47.990;7.866;2023-03-14T14:09:02;1.50;;;0.85;;
5022;SDS011;2530;47.990;7.866;2023-03-14T14:14:06;2.50;;;0.90;;
5022;SDS011;2530;47.990;7.866;2023-03-14T14:16:37;2.10;;;0.60;;
5022;SDS011;2530;47.990;7.866;2023-03-14T14:19:03;1.42;;;0.60;;
5022;SDS011;2530;47.990;7.866;2023-03-14T14:21:29;2.50;;;0.80;;
5022;SDS011;2530;47.990;7.866;2023-03-14T14:23:56;1.70;;;0.80;;
5022;SDS011;2530;47.990;7.866;2023-03-14T14:26:22;1.73;;;0.70;;
5022;SDS011;2530;47.990;7.866;2023-03-14T14:28:57;1.73;;;0.90;;
5022;SDS011;2530;47.990;7.866;2023-03-14T14:31:24;2.90;;;0.90;;
5022;SDS011;2530;47.990;7.866;2023-03-14T14:33:56;2.50;;;1.00;;
5022;SDS011;2530;47.990;7.866;2023-03-14T14:36:36;1.50;;;0.80;;
5022;SDS011;2530;47.990;7.866;2023-03-14T14:39:05;1.05;;;0.90;;
5022;SDS011;2530;47.990;7.866;2023-03-14T14:41:35;2.08;;;0.80;;
5022;SDS011;2530;47.990;7.866;2023-03-14T14:44:06;2.08;;;1.00;;
5022;SDS011;2530;47.990;7.866;2023-03-14T14:46:32;3.10;;;1.10;;
5022;SDS011;2530;47.990;7.866;2023-03-14T14:49:05;2.00;;;0.80;;
5022;SDS011;2530;47.990;7.866;2023-03-14T14:51:45;2.10;;;1.00;;
5022;SDS011;2530;47.990;7.866;2023-03-14T14:54:17;3.20;;;1.10;;
5022;SDS011;2530;47.990;7.866;2023-03-14T14:56:49;1.40;;;0.60;;
5022;SDS011;2530;47.990;7.866;2023-03-14T14:59:25;3.63;;;1.75;;
5022;SDS011;2530;47.990;7.866;2023-03-14T15:02:01;3.83;;;1.00;;
5022;SDS011;2530;47.990;7.866;2023-03-14T15:04:30;3.53;;;1.02;;
5022;SDS011;2530;47.990;7.866;2023-03-14T15:06:56;1.33;;;1.00;;
5022;SDS011;2530;47.990;7.866;2023-03-14T15:09:21;3.65;;;1.20;;
5022;SDS011;2530;47.990;7.866;2023-03-14T15:11:47;1.60;;;0.90;;
5022;SDS011;2530;47.990;7.866;2023-03-14T15:14:13;1.60;;;0.60;;
5022;SDS011;2530;47.990;7.866;2023-03-14T15:16:39;1.58;;;0.80;;
5022;SDS011;2530;47.990;7.866;2023-03-14T15:19:18;2.67;;;0.80;;
5022;SDS011;2530;47.990;7.866;2023-03-14T15:21:49;2.28;;;0.80;;
5022;SDS011;2530;47.990;7.866;2023-03-14T15:24:15;2.77;;;0.80;;
5022;SDS011;2530;47.990;7.866;2023-03-14T15:26:40;1.57;;;0.60;;
5022;SDS011;2530;47.990;7.866;2023-03-14T15:29:08;1.63;;;0.90;;
5022;SDS011;2530;47.990;7.866;2023-03-14T15:31:36;1.42;;;0.80;;
5022;SDS011;2530;47.990;7.866;2023-03-14T15:34:02;2.60;;;0.80;;
5022;SDS011;2530;47.990;7.866;2023-03-14T15:36:29;1.37;;;0.73;;
5022;SDS011;2530;47.990;7.866;2023-03-14T15:38:56;1.90;;;0.90;;
5022;SDS011;2530;47.990;7.866;2023-03-14T15:41:23;2.10;;;0.90;;
5022;SDS011;2530;47.990;7.866;2023-03-14T15:43:50;2.40;;;0.80;;
5022;SDS011;2530;47.990;7.866;2023-03-14T15:46:16;3.13;;;1.15;;
5022;SDS011;2530;47.990;7.866;2023-03-14T15:48:43;2.33;;;0.90;;
5022;SDS011;2530;47.990;7.866;2023-03-14T15:51:09;2.30;;;0.90;;
5022;SDS011;2530;47.990;7.866;2023-03-14T15:53:35;1.73;;;0.90;;
5022;SDS011;2530;47.990;7.866;2023-03-14T15:56:04;1.30;;;0.80;;
5022;SDS011;2530;47.990;7.866;2023-03-14T15:58:31;2.83;;;0.95;;
5022;SDS011;2530;47.990;7.866;2023-03-14T16:00:58;3.03;;;1.08;;
5022;SDS011;2530;47.990;7.866;2023-03-14T16:03:26;2.90;;;1.10;;
5022;SDS011;2530;47.990;7.866;2023-03-14T16:05:52;2.13;;;0.80;;
5022;SDS011;2530;47.990;7.866;2023-03-14T16:08:18;2.40;;;1.10;;
5022;SDS011;2530;47.990;7.866;2023-03-14T16:10:44;2.30;;;0.93;;
5022;SDS011;2530;47.990;7.866;2023-03-14T16:13:11;2.38;;;1.05;;
5022;SDS011;2530;47.990;7.866;2023-03-14T16:15:37;1.88;;;1.10;;
5022;SDS011;2530;47.990;7.866;2023-03-14T16:18:02;2.53;;;1.13;;
5022;SDS011;2530;47.990;7.866;2023-03-14T16:20:28;3.37;;;0.93;;
5022;SDS011;2530;47.990;7.866;2023-03-14T16:22:54;0.95;;;0.60;;
5022;SDS011;2530;47.990;7.866;2023-03-14T16:25:20;3.00;;;1.00;;
5022;SDS011;2530;47.990;7.866;2023-03-14T16:27:46;1.20;;;0.57;;
5022;SDS011;2530;47.990;7.866;2023-03-14T16:30:12;0.90;;;0.60;;
5022;SDS011;2530;47.990;7.866;2023-03-14T16:32:38;1.60;;;0.70;;
5022;SDS011;2530;47.990;7.866;2023-03-14T16:35:04;1.55;;;1.02;;
5022;SDS011;2530;47.990;7.866;2023-03-14T16:37:30;1.05;;;0.65;;